www.cux-wetter.de
Wetterdaten: Donnerstag, 30.04.2015
Datum Zeit Temp. A. Feuchte A. Luftdruck Regen Wind Richtung Richtung Sonnenschein Solar Taupunkt Windchill Windben
30.04.2015 00:15 11,6 C 95 % 1010,5 hPa 0,0 l/m 11,9 km/h (2 Bft) SW 230 0 min 0 W/m 10,8 C 8,4 C 11,9 km/h (2 Bft)
30.04.2015 00:30 11,6 C 95 % 1010,5 hPa 0,0 l/m 12,6 km/h (3 Bft) SW 225 0 min 0 W/m 10,8 C 8,1 C 12,6 km/h (3 Bft)
30.04.2015 00:44 11,6 C 95 % 1010,5 hPa 0,0 l/m 1,3 km/h (1 Bft) SW 220 0 min 0 W/m 10,8 C 11,6 C 1,3 km/h (1 Bft)
30.04.2015 01:00 11,6 C 95 % 1010,5 hPa 0,0 l/m 5,0 km/h (1 Bft) S-SW 200 0 min 0 W/m 10,8 C 11,6 C 5,0 km/h (1 Bft)
30.04.2015 01:15 11,6 C 95 % 1010,5 hPa 0,0 l/m 8,3 km/h (2 Bft) SW 220 0 min 0 W/m 10,8 C 10,3 C 8,3 km/h (2 Bft)
30.04.2015 01:30 11,6 C 95 % 1010,5 hPa 0,0 l/m 6,1 km/h (2 Bft) SW 225 0 min 0 W/m 10,8 C 11,6 C 6,1 km/h (2 Bft)
30.04.2015 01:45 11,6 C 95 % 1010,5 hPa 0,0 l/m 16,1 km/h (3 Bft) NW 320 0 min 0 W/m 10,8 C 6,7 C 16,1 km/h (3 Bft)
30.04.2015 02:00 11,6 C 95 % 1010,5 hPa 0,0 l/m 23,5 km/h (4 Bft) N-NW 345 0 min 0 W/m 10,8 C 4,4 C 23,5 km/h (4 Bft)
30.04.2015 02:15 11,6 C 95 % 1010,5 hPa 0,0 l/m 20,1 km/h (4 Bft) N-NW 340 0 min 0 W/m 10,8 C 5,3 C 20,1 km/h (4 Bft)
30.04.2015 02:30 11,6 C 95 % 1010,5 hPa 0,0 l/m 15,8 km/h (3 Bft) N-NW 330 0 min 0 W/m 10,8 C 6,8 C 15,8 km/h (3 Bft)
30.04.2015 02:45 11,6 C 95 % 1010,5 hPa 0,0 l/m 13,8 km/h (3 Bft) N 350 0 min 0 W/m 10,8 C 7,6 C 13,8 km/h (3 Bft)
30.04.2015 03:00 11,6 C 95 % 1010,5 hPa 0,0 l/m 12,3 km/h (2 Bft) N-NW 340 0 min 0 W/m 10,8 C 8,2 C 12,3 km/h (2 Bft)
30.04.2015 03:15 11,6 C 95 % 1010,5 hPa 0,0 l/m 7,2 km/h (2 Bft) NW 320 0 min 0 W/m 10,8 C 11,1 C 7,2 km/h (2 Bft)
30.04.2015 03:29 11,6 C 95 % 1010,5 hPa 0,6 l/m 12,7 km/h (3 Bft) NW 315 0 min 0 W/m 10,8 C 8,0 C 12,7 km/h (3 Bft)
30.04.2015 03:45 11,6 C 95 % 1010,5 hPa 0,0 l/m 9,2 km/h (2 Bft) NW 315 0 min 0 W/m 10,8 C 9,8 C 9,2 km/h (2 Bft)
30.04.2015 04:00 11,6 C 95 % 1010,5 hPa 0,0 l/m 18,1 km/h (3 Bft) NW 315 0 min 0 W/m 10,8 C 6,0 C 18,1 km/h (3 Bft)
30.04.2015 04:15 11,6 C 95 % 1010,5 hPa 0,0 l/m 16,3 km/h (3 Bft) N-NW 340 0 min 0 W/m 10,8 C 6,6 C 16,3 km/h (3 Bft)
30.04.2015 04:30 11,6 C 95 % 1010,5 hPa 0,0 l/m 11,6 km/h (2 Bft) NW 325 0 min 0 W/m 10,8 C 8,5 C 11,6 km/h (2 Bft)
30.04.2015 04:45 11,6 C 95 % 1010,5 hPa 0,3 l/m 11,9 km/h (2 Bft) NW 325 0 min 0 W/m 10,8 C 8,4 C 11,9 km/h (2 Bft)
30.04.2015 05:00 11,6 C 95 % 1010,5 hPa 0,6 l/m 0,6 km/h (0 Bft) W-NW 290 0 min 0 W/m 10,8 C 11,6 C 0,6 km/h (0 Bft)
30.04.2015 05:14 11,6 C 95 % 1010,5 hPa 0,6 l/m 0,7 km/h (0 Bft) W 260 0 min 0 W/m 10,8 C 11,6 C 0,7 km/h (0 Bft)
30.04.2015 05:30 11,6 C 95 % 1009,5 hPa 0,0 l/m 0,0 km/h (0 Bft) W-SW 255 0 min 0 W/m 10,8 C 11,6 C 0,0 km/h (0 Bft)
30.04.2015 05:45 11,6 C 95 % 1009,5 hPa 0,3 l/m 0,0 km/h (0 Bft) W-SW 255 0 min 0 W/m 10,8 C 11,6 C 0,0 km/h (0 Bft)
30.04.2015 06:00 11,6 C 95 % 1009,5 hPa 0,0 l/m 0,0 km/h (0 Bft) W-SW 255 0 min 0 W/m 10,8 C 11,6 C 0,0 km/h (0 Bft)
30.04.2015 06:15 11,6 C 95 % 1009,5 hPa 0,0 l/m 0,5 km/h (0 Bft) W 260 0 min 0 W/m 10,8 C 11,6 C 0,5 km/h (0 Bft)
30.04.2015 06:30 11,6 C 95 % 1009,5 hPa 0,0 l/m 0,1 km/h (0 Bft) W-SW 255 0 min 0 W/m 10,8 C 11,6 C 0,1 km/h (0 Bft)
30.04.2015 06:45 11,6 C 95 % 1009,5 hPa 0,0 l/m 0,0 km/h (0 Bft) W-SW 255 0 min 0 W/m 10,8 C 11,6 C 0,0 km/h (0 Bft)
30.04.2015 07:00 11,6 C 95 % 1010,5 hPa 0,0 l/m 0,0 km/h (0 Bft) W-SW 255 0 min 0 W/m 10,8 C 11,6 C 0,0 km/h (0 Bft)
30.04.2015 07:15 11,6 C 95 % 1010,5 hPa 0,0 l/m 5,7 km/h (2 Bft) W-SW 250 0 min 0 W/m 10,8 C 11,6 C 5,7 km/h (2 Bft)
30.04.2015 07:30 11,6 C 95 % 1010,5 hPa 0,0 l/m 6,2 km/h (2 Bft) SW 230 0 min 0 W/m 10,8 C 11,6 C 6,2 km/h (2 Bft)
30.04.2015 07:45 11,6 C 95 % 1010,5 hPa 0,0 l/m 5,4 km/h (2 Bft) SW 215 0 min 0 W/m 10,8 C 11,6 C 5,4 km/h (2 Bft)
30.04.2015 08:00 11,6 C 95 % 1010,5 hPa 0,0 l/m 7,5 km/h (2 Bft) W 260 0 min 0 W/m 10,8 C 10,9 C 7,5 km/h (2 Bft)
30.04.2015 08:15 11,6 C 95 % 1010,5 hPa 0,0 l/m 19,6 km/h (3 Bft) W 275 0 min 0 W/m 10,8 C 5,5 C 19,6 km/h (3 Bft)
30.04.2015 08:29 11,6 C 95 % 1010,5 hPa 0,0 l/m 18,0 km/h (3 Bft) W 265 0 min 0 W/m 10,8 C 6,0 C 18,0 km/h (3 Bft)
30.04.2015 08:45 11,6 C 95 % 1009,5 hPa 0,0 l/m 14,9 km/h (3 Bft) W 265 0 min 0 W/m 10,8 C 7,1 C 14,9 km/h (3 Bft)
30.04.2015 09:00 11,6 C 95 % 1009,5 hPa 0,0 l/m 19,5 km/h (3 Bft) W 280 0 min 0 W/m 10,8 C 5,5 C 19,5 km/h (3 Bft)
30.04.2015 09:15 11,6 C 95 % 1010,5 hPa 0,0 l/m 20,0 km/h (4 Bft) W-NW 290 0 min 0 W/m 10,8 C 5,4 C 20,0 km/h (4 Bft)
30.04.2015 09:30 11,6 C 95 % 1010,5 hPa 0,0 l/m 18,6 km/h (3 Bft) W-NW 285 0 min 0 W/m 10,8 C 5,8 C 18,6 km/h (3 Bft)
30.04.2015 09:45 11,6 C 95 % 1010,5 hPa 0,0 l/m 18,8 km/h (3 Bft) W-NW 285 0 min 0 W/m 10,8 C 5,7 C 18,8 km/h (3 Bft)
30.04.2015 10:00 11,6 C 95 % 1010,5 hPa 0,0 l/m 22,5 km/h (4 Bft) W 280 0 min 0 W/m 10,8 C 4,6 C 22,5 km/h (4 Bft)
30.04.2015 10:14 11,6 C 95 % 1009,5 hPa 0,0 l/m 20,8 km/h (4 Bft) W-NW 285 0 min 0 W/m 10,8 C 5,1 C 20,8 km/h (4 Bft)
30.04.2015 10:30 11,6 C 95 % 1009,5 hPa 0,0 l/m 21,9 km/h (4 Bft) W-NW 285 0 min 0 W/m 10,8 C 4,8 C 21,9 km/h (4 Bft)
30.04.2015 10:45 11,6 C 95 % 1009,5 hPa 0,0 l/m 23,7 km/h (4 Bft) W-NW 285 0 min 0 W/m 10,8 C 4,3 C 23,7 km/h (4 Bft)
30.04.2015 10:59 11,6 C 95 % 1009,5 hPa 0,0 l/m 20,6 km/h (4 Bft) W 270 0 min 0 W/m 10,8 C 5,2 C 20,6 km/h (4 Bft)
30.04.2015 11:15 11,6 C 95 % 1009,5 hPa 0,0 l/m 24,5 km/h (4 Bft) W 280 0 min 0 W/m 10,8 C 4,1 C 24,5 km/h (4 Bft)
30.04.2015 11:30 11,6 C 95 % 1009,5 hPa 0,0 l/m 24,4 km/h (4 Bft) W-NW 285 0 min 0 W/m 10,8 C 4,1 C 24,4 km/h (4 Bft)
30.04.2015 11:45 11,6 C 95 % 1009,5 hPa 0,0 l/m 21,6 km/h (4 Bft) W-NW 295 0 min 0 W/m 10,8 C 4,9 C 21,6 km/h (4 Bft)
30.04.2015 12:00 11,6 C 95 % 1009,5 hPa 0,0 l/m 21,1 km/h (4 Bft) W-NW 285 0 min 0 W/m 10,8 C 5,0 C 21,1 km/h (4 Bft)
30.04.2015 12:15 11,6 C 95 % 1009,5 hPa 0,0 l/m 23,0 km/h (4 Bft) W 275 0 min 0 W/m 10,8 C 4,5 C 23,0 km/h (4 Bft)
30.04.2015 12:30 11,6 C 95 % 1009,5 hPa 0,0 l/m 19,5 km/h (3 Bft) W 275 0 min 0 W/m 10,8 C 5,5 C 19,5 km/h (3 Bft)
30.04.2015 12:44 11,6 C 95 % 1009,5 hPa 0,0 l/m 28,5 km/h (5 Bft) W-NW 285 0 min 0 W/m 10,8 C 3,2 C 28,5 km/h (5 Bft)
30.04.2015 13:00 11,6 C 95 % 1009,5 hPa 0,0 l/m 24,6 km/h (4 Bft) W 275 0 min 0 W/m 10,8 C 4,1 C 24,6 km/h (4 Bft)
30.04.2015 13:15 11,6 C 95 % 1009,5 hPa 0,0 l/m 25,5 km/h (4 Bft) W-NW 295 0 min 0 W/m 10,8 C 3,9 C 25,5 km/h (4 Bft)
30.04.2015 13:30 11,6 C 95 % 1009,5 hPa 0,0 l/m 26,3 km/h (4 Bft) W 280 0 min 0 W/m 10,8 C 3,7 C 26,3 km/h (4 Bft)
30.04.2015 13:45 11,6 C 95 % 1009,5 hPa 0,0 l/m 25,5 km/h (4 Bft) W 275 0 min 0 W/m 10,8 C 3,9 C 25,5 km/h (4 Bft)
30.04.2015 14:00 11,6 C 95 % 1008,5 hPa 0,0 l/m 23,1 km/h (4 Bft) W-NW 285 0 min 0 W/m 10,8 C 4,5 C 23,1 km/h (4 Bft)
30.04.2015 14:15 11,6 C 95 % 1008,5 hPa 0,0 l/m 25,1 km/h (4 Bft) W-NW 285 0 min 0 W/m 10,8 C 4,0 C 25,1 km/h (4 Bft)
30.04.2015 14:29 11,6 C 95 % 1008,5 hPa 0,0 l/m 26,1 km/h (4 Bft) W-NW 285 0 min 0 W/m 10,8 C 3,7 C 26,1 km/h (4 Bft)
30.04.2015 14:45 11,6 C 95 % 1008,5 hPa 0,0 l/m 23,0 km/h (4 Bft) W 275 0 min 0 W/m 10,8 C 4,5 C 23,0 km/h (4 Bft)
30.04.2015 15:00 11,6 C 95 % 1009,5 hPa 0,0 l/m 32,5 km/h (5 Bft) N-NW 330 0 min 0 W/m 10,8 C 2,4 C 32,5 km/h (5 Bft)
30.04.2015 15:15 11,6 C 95 % 1009,5 hPa 0,0 l/m 30,0 km/h (5 Bft) NW 320 0 min 0 W/m 10,8 C 2,9 C 30,0 km/h (5 Bft)
30.04.2015 15:30 11,6 C 95 % 1009,5 hPa 0,0 l/m 31,7 km/h (5 Bft) W-NW 295 0 min 0 W/m 10,8 C 2,6 C 31,7 km/h (5 Bft)
30.04.2015 15:45 11,6 C 95 % 1009,5 hPa 0,0 l/m 22,9 km/h (4 Bft) W 275 0 min 0 W/m 10,8 C 4,5 C 22,9 km/h (4 Bft)
30.04.2015 16:00 11,6 C 95 % 1009,5 hPa 0,0 l/m 24,2 km/h (4 Bft) W-NW 295 0 min 0 W/m 10,8 C 4,2 C 24,2 km/h (4 Bft)
30.04.2015 16:14 11,6 C 95 % 1009,5 hPa 0,0 l/m 34,1 km/h (5 Bft) NW 305 0 min 0 W/m 10,8 C 2,2 C 34,1 km/h (5 Bft)
30.04.2015 16:30 11,6 C 95 % 1009,5 hPa 0,0 l/m 35,1 km/h (5 Bft) W-NW 300 0 min 0 W/m 10,8 C 2,0 C 35,1 km/h (5 Bft)
30.04.2015 16:45 11,6 C 95 % 1009,5 hPa 0,0 l/m 29,0 km/h (5 Bft) NW 305 0 min 0 W/m 10,8 C 3,1 C 29,0 km/h (5 Bft)
30.04.2015 16:59 11,6 C 95 % 1008,5 hPa 0,0 l/m 18,1 km/h (3 Bft) W-NW 290 0 min 0 W/m 10,8 C 6,0 C 18,1 km/h (3 Bft)
30.04.2015 17:15 11,6 C 95 % 1008,5 hPa 0,0 l/m 8,1 km/h (2 Bft) SW 225 0 min 0 W/m 10,8 C 10,5 C 8,1 km/h (2 Bft)
30.04.2015 17:30 11,6 C 95 % 1008,5 hPa 0,0 l/m 8,8 km/h (2 Bft) SW 220 0 min 0 W/m 10,8 C 10,0 C 8,8 km/h (2 Bft)
30.04.2015 17:45 11,6 C 95 % 1008,5 hPa 0,0 l/m 9,2 km/h (2 Bft) SW 225 0 min 0 W/m 10,8 C 9,8 C 9,2 km/h (2 Bft)
30.04.2015 18:00 11,6 C 95 % 1008,5 hPa 0,0 l/m 10,6 km/h (2 Bft) SW 235 0 min 0 W/m 10,8 C 9,0 C 10,6 km/h (2 Bft)
30.04.2015 18:15 11,6 C 95 % 1008,5 hPa 0,0 l/m 8,2 km/h (2 Bft) SW 215 0 min 0 W/m 10,8 C 10,4 C 8,2 km/h (2 Bft)
30.04.2015 18:30 11,6 C 95 % 1008,5 hPa 0,0 l/m 13,5 km/h (3 Bft) S-SW 205 0 min 0 W/m 10,8 C 7,7 C 13,5 km/h (3 Bft)
30.04.2015 18:44 11,6 C 95 % 1008,5 hPa 0,0 l/m 11,3 km/h (2 Bft) W 260 0 min 0 W/m 10,8 C 8,7 C 11,3 km/h (2 Bft)
30.04.2015 19:00 11,6 C 95 % 1008,5 hPa 0,0 l/m 9,0 km/h (2 Bft) SW 215 0 min 0 W/m 10,8 C 9,9 C 9,0 km/h (2 Bft)
30.04.2015 19:15 11,6 C 95 % 1007,5 hPa 0,0 l/m 11,8 km/h (2 Bft) S-SW 205 0 min 0 W/m 10,8 C 8,5 C 11,8 km/h (2 Bft)
30.04.2015 19:30 11,6 C 95 % 1007,5 hPa 0,0 l/m 8,7 km/h (2 Bft) SW 215 0 min 0 W/m 10,8 C 10,1 C 8,7 km/h (2 Bft)
30.04.2015 19:45 11,6 C 95 % 1007,5 hPa 0,0 l/m 4,6 km/h (1 Bft) S-SW 210 0 min 0 W/m 10,8 C 11,6 C 4,6 km/h (1 Bft)
30.04.2015 20:00 11,6 C 95 % 1007,5 hPa 0,0 l/m 5,6 km/h (2 Bft) W-SW 245 0 min 0 W/m 10,8 C 11,6 C 5,6 km/h (2 Bft)
30.04.2015 20:15 11,6 C 95 % 1007,5 hPa 0,0 l/m 3,1 km/h (1 Bft) W-SW 245 0 min 0 W/m 10,8 C 11,6 C 3,1 km/h (1 Bft)
30.04.2015 20:29 11,6 C 95 % 1007,5 hPa 0,0 l/m 0,2 km/h (0 Bft) W-SW 245 0 min 0 W/m 10,8 C 11,6 C 0,2 km/h (0 Bft)
30.04.2015 20:45 11,6 C 95 % 1007,5 hPa 0,0 l/m 0,0 km/h (0 Bft) W-SW 245 0 min 0 W/m 10,8 C 11,6 C 0,0 km/h (0 Bft)
30.04.2015 21:00 11,6 C 95 % 1007,5 hPa 0,0 l/m 1,6 km/h (1 Bft) SW 235 0 min 0 W/m 10,8 C 11,6 C 1,6 km/h (1 Bft)
30.04.2015 21:15 11,6 C 95 % 1007,5 hPa 0,0 l/m 4,9 km/h (1 Bft) SO 130 0 min 0 W/m 10,8 C 11,6 C 4,9 km/h (1 Bft)
30.04.2015 21:30 11,6 C 95 % 1007,5 hPa 0,0 l/m 0,0 km/h (0 Bft) NO 40 0 min 0 W/m 10,8 C 11,6 C 0,0 km/h (0 Bft)
30.04.2015 21:45 11,6 C 95 % 1007,5 hPa 0,0 l/m 0,0 km/h (0 Bft) NO 35 0 min 0 W/m 10,8 C 11,6 C 0,0 km/h (0 Bft)
30.04.2015 21:59 11,6 C 95 % 1007,5 hPa 0,0 l/m 0,0 km/h (0 Bft) N-NO 30 0 min 0 W/m 10,8 C 11,6 C 0,0 km/h (0 Bft)
30.04.2015 22:15 11,6 C 95 % 1007,5 hPa 0,3 l/m 12,6 km/h (3 Bft) NW 320 0 min 0 W/m 10,8 C 8,1 C 12,6 km/h (3 Bft)
30.04.2015 22:30 11,6 C 95 % 1007,5 hPa 0,3 l/m 1,2 km/h (1 Bft) W-SW 250 0 min 0 W/m 10,8 C 11,6 C 1,2 km/h (1 Bft)
30.04.2015 22:45 11,6 C 95 % 1007,5 hPa 0,0 l/m 0,1 km/h (0 Bft) W-SW 250 0 min 0 W/m 10,8 C 11,6 C 0,1 km/h (0 Bft)
30.04.2015 23:00 11,6 C 95 % 1007,5 hPa 0,0 l/m 0,0 km/h (0 Bft) W-SW 245 0 min 0 W/m 10,8 C 11,6 C 0,0 km/h (0 Bft)
30.04.2015 23:15 11,6 C 95 % 1007,5 hPa 0,0 l/m 0,0 km/h (0 Bft) W-SW 245 0 min 0 W/m 10,8 C 11,6 C 0,0 km/h (0 Bft)
30.04.2015 23:30 11,6 C 95 % 1007,5 hPa 0,0 l/m 0,0 km/h (0 Bft) W-SW 245 0 min 0 W/m 10,8 C 11,6 C 0,0 km/h (0 Bft)
30.04.2015 23:44 11,6 C 95 % 1007,5 hPa 0,0 l/m 0,0 km/h (0 Bft) W-SW 245 0 min 0 W/m 10,8 C 11,6 C 0,0 km/h (0 Bft)
_ Min-Zeit 00:15 00:15 19:15 - 05:30 - - - - 00:15 16:30 05:30
Minimum _ 11,6 C 95 % 1007,5 hPa - 0,0 km/h (0 Bft) - - - - 10,8 C 2,0 C 0,0 km/h (0 Bft)
_ Max-Zeit 00:15 00:15 00:15 03:29 16:30 - - 00:15 00:15 00:15 00:44 16:30
Maximum _ 11,6 C 95 % 1010,5 hPa 0,6 l/m 35,1 km/h
W-NW (5 Bft)
- - 0 min 0 W/m 10,8 C 11,6 C 35,1 km/h
W-NW (5 Bft)
Durchschnitt _ 11,6 C 95 % 1009,3 hPa #3,0 l/m 13,2 km/h (3 Bft) W-NW - #0 min. 0 W/m 10,8 C 8,0 C 13,2 km/h (3 Bft)
copyright by Holger Just